sensor_id;sensor_type;location;lat;lon;timestamp;pressure;altitude;pressure_sealevel;temperature;humidity
46464;BME280;32161;48.148;-1.554;2024-03-08T00:01:53;99916.34;;;9.05;100.00
46464;BME280;32161;48.148;-1.554;2024-03-08T00:04:22;99912.59;;;8.94;100.00
46464;BME280;32161;48.148;-1.554;2024-03-08T00:06:49;99913.06;;;8.91;100.00
46464;BME280;32161;48.148;-1.554;2024-03-08T00:09:17;99903.28;;;8.90;100.00
46464;BME280;32161;48.148;-1.554;2024-03-08T00:11:45;99898.59;;;8.86;100.00
46464;BME280;32161;48.148;-1.554;2024-03-08T00:14:12;99900.97;;;8.82;100.00
46464;BME280;32161;48.148;-1.554;2024-03-08T00:16:40;99901.47;;;8.67;100.00
46464;BME280;32161;48.148;-1.554;2024-03-08T00:19:08;99893.78;;;8.76;100.00
46464;BME280;32161;48.148;-1.554;2024-03-08T00:21:37;99888.09;;;8.89;100.00
46464;BME280;32161;48.148;-1.554;2024-03-08T00:24:05;99890.00;;;8.89;100.00
46464;BME280;32161;48.148;-1.554;2024-03-08T00:26:33;99898.34;;;8.87;100.00
46464;BME280;32161;48.148;-1.554;2024-03-08T00:29:00;99885.31;;;8.84;100.00
46464;BME280;32161;48.148;-1.554;2024-03-08T00:31:29;99882.47;;;8.79;100.00
46464;BME280;32161;48.148;-1.554;2024-03-08T00:33:58;99876.72;;;8.64;100.00
46464;BME280;32161;48.148;-1.554;2024-03-08T00:36:25;99874.84;;;8.64;100.00
46464;BME280;32161;48.148;-1.554;2024-03-08T00:38:57;99867.28;;;8.78;100.00
46464;BME280;32161;48.148;-1.554;2024-03-08T00:41:27;99864.81;;;8.76;100.00
46464;BME280;32161;48.148;-1.554;2024-03-08T00:43:54;99867.75;;;8.75;100.00
46464;BME280;32161;48.148;-1.554;2024-03-08T00:46:22;99856.50;;;8.54;100.00
46464;BME280;32161;48.148;-1.554;2024-03-08T00:48:49;99858.75;;;8.58;100.00
46464;BME280;32161;48.148;-1.554;2024-03-08T00:51:17;99867.44;;;8.60;100.00
46464;BME280;32161;48.148;-1.554;2024-03-08T00:53:45;99857.28;;;8.67;100.00
46464;BME280;32161;48.148;-1.554;2024-03-08T00:56:14;99865.06;;;8.63;100.00
46464;BME280;32161;48.148;-1.554;2024-03-08T00:58:41;99864.00;;;8.64;100.00
46464;BME280;32161;48.148;-1.554;2024-03-08T01:01:09;99859.66;;;8.63;100.00
46464;BME280;32161;48.148;-1.554;2024-03-08T01:03:37;99859.41;;;8.65;100.00
46464;BME280;32161;48.148;-1.554;2024-03-08T01:06:05;99852.16;;;8.53;100.00
46464;BME280;32161;48.148;-1.554;2024-03-08T01:08:33;99848.03;;;8.51;100.00
46464;BME280;32161;48.148;-1.554;2024-03-08T01:11:00;99844.97;;;8.47;100.00
46464;BME280;32161;48.148;-1.554;2024-03-08T01:13:29;99844.16;;;8.47;100.00
46464;BME280;32161;48.148;-1.554;2024-03-08T01:15:57;99841.78;;;8.50;100.00
46464;BME280;32161;48.148;-1.554;2024-03-08T01:18:24;99824.94;;;8.48;100.00
46464;BME280;32161;48.148;-1.554;2024-03-08T01:20:52;99828.25;;;8.50;100.00
46464;BME280;32161;48.148;-1.554;2024-03-08T01:23:20;99823.41;;;8.52;100.00
46464;BME280;32161;48.148;-1.554;2024-03-08T01:25:48;99811.16;;;8.62;100.00
46464;BME280;32161;48.148;-1.554;2024-03-08T01:28:23;99819.44;;;8.43;100.00
46464;BME280;32161;48.148;-1.554;2024-03-08T01:30:52;99811.31;;;8.43;100.00
46464;BME280;32161;48.148;-1.554;2024-03-08T01:33:23;99803.88;;;8.50;100.00
46464;BME280;32161;48.148;-1.554;2024-03-08T01:35:52;99806.59;;;8.50;100.00
46464;BME280;32161;48.148;-1.554;2024-03-08T01:38:20;99801.53;;;8.42;100.00
46464;BME280;32161;48.148;-1.554;2024-03-08T01:40:48;99801.03;;;8.45;100.00
46464;BME280;32161;48.148;-1.554;2024-03-08T01:43:18;99801.28;;;8.32;100.00
46464;BME280;32161;48.148;-1.554;2024-03-08T01:45:47;99799.75;;;8.36;100.00
46464;BME280;32161;48.148;-1.554;2024-03-08T01:48:17;99790.00;;;8.35;100.00
46464;BME280;32161;48.148;-1.554;2024-03-08T01:50:45;99794.25;;;8.31;100.00
46464;BME280;32161;48.148;-1.554;2024-03-08T01:53:13;99782.25;;;8.39;100.00
46464;BME280;32161;48.148;-1.554;2024-03-08T01:55:43;99789.88;;;8.30;100.00
46464;BME280;32161;48.148;-1.554;2024-03-08T01:58:12;99781.53;;;8.43;100.00
46464;BME280;32161;48.148;-1.554;2024-03-08T02:00:44;99776.56;;;8.40;100.00
46464;BME280;32161;48.148;-1.554;2024-03-08T02:03:16;99766.56;;;8.41;100.00
46464;BME280;32161;48.148;-1.554;2024-03-08T02:05:44;99768.06;;;8.37;100.00
46464;BME280;32161;48.148;-1.554;2024-03-08T02:08:12;99769.75;;;8.26;100.00
46464;BME280;32161;48.148;-1.554;2024-03-08T02:10:41;99773.41;;;8.31;100.00
46464;BME280;32161;48.148;-1.554;2024-03-08T02:13:09;99758.69;;;8.39;100.00
46464;BME280;32161;48.148;-1.554;2024-03-08T02:15:53;99754.19;;;8.33;100.00
46464;BME280;32161;48.148;-1.554;2024-03-08T02:18:23;99753.63;;;8.43;100.00
46464;BME280;32161;48.148;-1.554;2024-03-08T02:20:53;99762.91;;;8.47;100.00
46464;BME280;32161;48.148;-1.554;2024-03-08T02:23:21;99772.31;;;8.44;100.00
46464;BME280;32161;48.148;-1.554;2024-03-08T02:25:51;99756.22;;;8.38;100.00
46464;BME280;32161;48.148;-1.554;2024-03-08T02:28:19;99752.69;;;8.37;100.00
46464;BME280;32161;48.148;-1.554;2024-03-08T02:30:48;99739.97;;;8.38;100.00
46464;BME280;32161;48.148;-1.554;2024-03-08T02:33:18;99737.38;;;8.43;100.00
46464;BME280;32161;48.148;-1.554;2024-03-08T02:35:46;99731.34;;;8.41;100.00
46464;BME280;32161;48.148;-1.554;2024-03-08T02:38:17;99716.63;;;8.37;100.00
46464;BME280;32161;48.148;-1.554;2024-03-08T02:40:45;99711.84;;;8.39;100.00
46464;BME280;32161;48.148;-1.554;2024-03-08T02:43:14;99715.47;;;8.32;100.00
46464;BME280;32161;48.148;-1.554;2024-03-08T02:45:42;99702.19;;;8.31;100.00
46464;BME280;32161;48.148;-1.554;2024-03-08T02:48:10;99695.44;;;8.33;100.00
46464;BME280;32161;48.148;-1.554;2024-03-08T02:50:38;99694.53;;;8.28;100.00
46464;BME280;32161;48.148;-1.554;2024-03-08T02:53:08;99695.75;;;8.20;100.00
46464;BME280;32161;48.148;-1.554;2024-03-08T02:55:39;99680.66;;;8.24;100.00
46464;BME280;32161;48.148;-1.554;2024-03-08T02:58:07;99697.16;;;8.23;100.00
46464;BME280;32161;48.148;-1.554;2024-03-08T03:00:36;99697.41;;;8.10;100.00
46464;BME280;32161;48.148;-1.554;2024-03-08T03:03:05;99690.59;;;8.07;100.00
46464;BME280;32161;48.148;-1.554;2024-03-08T03:05:33;99693.06;;;8.08;100.00
46464;BME280;32161;48.148;-1.554;2024-03-08T03:08:00;99689.88;;;8.12;100.00
46464;BME280;32161;48.148;-1.554;2024-03-08T03:10:30;99677.06;;;8.07;100.00
46464;BME280;32161;48.148;-1.554;2024-03-08T03:12:59;99673.19;;;8.03;100.00
46464;BME280;32161;48.148;-1.554;2024-03-08T03:15:26;99664.72;;;7.99;100.00
46464;BME280;32161;48.148;-1.554;2024-03-08T03:17:55;99655.91;;;8.04;100.00
46464;BME280;32161;48.148;-1.554;2024-03-08T03:20:22;99665.31;;;8.01;100.00
46464;BME280;32161;48.148;-1.554;2024-03-08T03:22:52;99647.19;;;8.02;100.00
46464;BME280;32161;48.148;-1.554;2024-03-08T03:25:22;99648.59;;;8.04;100.00
46464;BME280;32161;48.148;-1.554;2024-03-08T03:27:52;99659.56;;;7.98;100.00
46464;BME280;32161;48.148;-1.554;2024-03-08T03:30:24;99652.03;;;8.00;100.00
46464;BME280;32161;48.148;-1.554;2024-03-08T03:32:53;99654.16;;;7.98;100.00
46464;BME280;32161;48.148;-1.554;2024-03-08T03:35:23;99656.88;;;7.86;100.00
46464;BME280;32161;48.148;-1.554;2024-03-08T03:37:50;99649.13;;;7.90;100.00
46464;BME280;32161;48.148;-1.554;2024-03-08T03:40:28;99651.47;;;7.86;100.00
46464;BME280;32161;48.148;-1.554;2024-03-08T03:42:56;99633.34;;;7.87;100.00
46464;BME280;32161;48.148;-1.554;2024-03-08T03:45:25;99626.41;;;7.91;100.00
46464;BME280;32161;48.148;-1.554;2024-03-08T03:47:52;99629.44;;;7.94;100.00
46464;BME280;32161;48.148;-1.554;2024-03-08T03:50:20;99623.94;;;7.89;100.00
46464;BME280;32161;48.148;-1.554;2024-03-08T03:52:49;99624.41;;;7.86;100.00
46464;BME280;32161;48.148;-1.554;2024-03-08T03:55:17;99615.63;;;7.79;100.00
46464;BME280;32161;48.148;-1.554;2024-03-08T03:57:45;99615.06;;;7.77;100.00
46464;BME280;32161;48.148;-1.554;2024-03-08T04:00:14;99618.44;;;7.72;100.00
46464;BME280;32161;48.148;-1.554;2024-03-08T04:02:43;99614.47;;;7.75;100.00
46464;BME280;32161;48.148;-1.554;2024-03-08T04:05:12;99610.00;;;7.80;100.00
46464;BME280;32161;48.148;-1.554;2024-03-08T04:07:40;99613.53;;;7.69;100.00
46464;BME280;32161;48.148;-1.554;2024-03-08T04:10:11;99601.41;;;7.72;100.00
46464;BME280;32161;48.148;-1.554;2024-03-08T04:12:38;99607.31;;;7.69;100.00
46464;BME280;32161;48.148;-1.554;2024-03-08T04:15:07;99599.69;;;7.66;100.00
46464;BME280;32161;48.148;-1.554;2024-03-08T04:17:37;99606.13;;;7.65;100.00
46464;BME280;32161;48.148;-1.554;2024-03-08T04:20:07;99607.19;;;7.64;100.00
46464;BME280;32161;48.148;-1.554;2024-03-08T04:22:36;99597.91;;;7.59;100.00
46464;BME280;32161;48.148;-1.554;2024-03-08T04:25:05;99591.94;;;7.57;100.00
46464;BME280;32161;48.148;-1.554;2024-03-08T04:27:33;99586.53;;;7.57;100.00
46464;BME280;32161;48.148;-1.554;2024-03-08T04:30:00;99582.84;;;7.64;100.00
46464;BME280;32161;48.148;-1.554;2024-03-08T04:32:28;99578.50;;;7.63;100.00
46464;BME280;32161;48.148;-1.554;2024-03-08T04:34:58;99588.06;;;7.53;100.00
46464;BME280;32161;48.148;-1.554;2024-03-08T04:37:28;99581.00;;;7.52;100.00
46464;BME280;32161;48.148;-1.554;2024-03-08T04:39:56;99558.91;;;7.55;100.00
46464;BME280;32161;48.148;-1.554;2024-03-08T04:42:24;99571.84;;;7.53;100.00
46464;BME280;32161;48.148;-1.554;2024-03-08T04:44:52;99571.25;;;7.51;100.00
46464;BME280;32161;48.148;-1.554;2024-03-08T04:47:20;99565.72;;;7.58;100.00
46464;BME280;32161;48.148;-1.554;2024-03-08T04:49:48;99561.22;;;7.64;100.00
46464;BME280;32161;48.148;-1.554;2024-03-08T04:52:16;99549.84;;;7.62;100.00
46464;BME280;32161;48.148;-1.554;2024-03-08T04:54:45;99556.50;;;7.71;100.00
46464;BME280;32161;48.148;-1.554;2024-03-08T04:57:13;99555.13;;;7.56;100.00
46464;BME280;32161;48.148;-1.554;2024-03-08T04:59:40;99550.44;;;7.52;100.00
46464;BME280;32161;48.148;-1.554;2024-03-08T05:02:08;99555.38;;;7.55;100.00
46464;BME280;32161;48.148;-1.554;2024-03-08T05:04:36;99555.72;;;7.58;100.00
46464;BME280;32161;48.148;-1.554;2024-03-08T05:07:04;99552.91;;;7.53;100.00
46464;BME280;32161;48.148;-1.554;2024-03-08T05:09:31;99544.47;;;7.50;100.00
46464;BME280;32161;48.148;-1.554;2024-03-08T05:12:01;99543.88;;;7.48;100.00
46464;BME280;32161;48.148;-1.554;2024-03-08T05:14:29;99536.81;;;7.47;100.00
46464;BME280;32161;48.148;-1.554;2024-03-08T05:16:56;99540.44;;;7.52;100.00
46464;BME280;32161;48.148;-1.554;2024-03-08T05:19:24;99534.13;;;7.47;100.00
46464;BME280;32161;48.148;-1.554;2024-03-08T05:21:51;99535.75;;;7.48;100.00
46464;BME280;32161;48.148;-1.554;2024-03-08T05:24:19;99531.41;;;7.47;100.00
46464;BME280;32161;48.148;-1.554;2024-03-08T05:26:47;99530.22;;;7.54;100.00
46464;BME280;32161;48.148;-1.554;2024-03-08T05:29:16;99532.91;;;7.54;100.00
46464;BME280;32161;48.148;-1.554;2024-03-08T05:31:47;99526.09;;;7.52;100.00
46464;BME280;32161;48.148;-1.554;2024-03-08T05:34:16;99530.44;;;7.53;100.00
46464;BME280;32161;48.148;-1.554;2024-03-08T05:36:45;99534.94;;;7.47;100.00
46464;BME280;32161;48.148;-1.554;2024-03-08T05:39:16;99534.94;;;7.47;100.00
46464;BME280;32161;48.148;-1.554;2024-03-08T05:41:44;99539.28;;;7.48;100.00
46464;BME280;32161;48.148;-1.554;2024-03-08T05:44:12;99546.56;;;7.48;100.00
46464;BME280;32161;48.148;-1.554;2024-03-08T05:46:42;99535.28;;;7.51;100.00
46464;BME280;32161;48.148;-1.554;2024-03-08T05:49:09;99531.75;;;7.50;100.00
46464;BME280;32161;48.148;-1.554;2024-03-08T05:51:39;99523.50;;;7.57;100.00
46464;BME280;32161;48.148;-1.554;2024-03-08T05:54:09;99527.41;;;7.49;100.00
46464;BME280;32161;48.148;-1.554;2024-03-08T05:56:37;99533.06;;;7.48;100.00
46464;BME280;32161;48.148;-1.554;2024-03-08T05:59:08;99524.59;;;7.44;100.00
46464;BME280;32161;48.148;-1.554;2024-03-08T06:01:36;99526.03;;;7.35;100.00
46464;BME280;32161;48.148;-1.554;2024-03-08T06:04:05;99529.78;;;7.34;100.00
46464;BME280;32161;48.148;-1.554;2024-03-08T06:06:33;99525.56;;;7.38;100.00
46464;BME280;32161;48.148;-1.554;2024-03-08T06:09:03;99525.88;;;7.42;100.00
46464;BME280;32161;48.148;-1.554;2024-03-08T06:11:35;99520.47;;;7.42;100.00
46464;BME280;32161;48.148;-1.554;2024-03-08T06:14:03;99531.53;;;7.40;100.00
46464;BME280;32161;48.148;-1.554;2024-03-08T06:16:32;99525.31;;;7.40;100.00
46464;BME280;32161;48.148;-1.554;2024-03-08T06:18:59;99528.28;;;7.38;100.00
46464;BME280;32161;48.148;-1.554;2024-03-08T06:21:29;99530.97;;;7.38;100.00
46464;BME280;32161;48.148;-1.554;2024-03-08T06:23:58;99520.00;;;7.45;100.00
46464;BME280;32161;48.148;-1.554;2024-03-08T06:26:26;99528.59;;;7.42;100.00
46464;BME280;32161;48.148;-1.554;2024-03-08T06:28:55;99533.44;;;7.40;100.00
46464;BME280;32161;48.148;-1.554;2024-03-08T06:31:22;99530.97;;;7.38;100.00
46464;BME280;32161;48.148;-1.554;2024-03-08T06:33:50;99526.03;;;7.35;100.00
46464;BME280;32161;48.148;-1.554;2024-03-08T06:36:20;99536.25;;;7.33;100.00
46464;BME280;32161;48.148;-1.554;2024-03-08T06:38:50;99525.44;;;7.33;100.00
46464;BME280;32161;48.148;-1.554;2024-03-08T06:41:18;99525.44;;;7.33;100.00
46464;BME280;32161;48.148;-1.554;2024-03-08T06:43:47;99525.69;;;7.31;100.00
46464;BME280;32161;48.148;-1.554;2024-03-08T06:46:18;99529.22;;;7.32;100.00
46464;BME280;32161;48.148;-1.554;2024-03-08T06:48:46;99533.56;;;7.33;100.00
46464;BME280;32161;48.148;-1.554;2024-03-08T06:51:15;99526.25;;;7.33;100.00
46464;BME280;32161;48.148;-1.554;2024-03-08T06:53:43;99532.28;;;7.36;100.00
46464;BME280;32161;48.148;-1.554;2024-03-08T06:56:12;99526.13;;;7.40;100.00
46464;BME280;32161;48.148;-1.554;2024-03-08T06:58:39;99526.03;;;7.35;100.00
46464;BME280;32161;48.148;-1.554;2024-03-08T07:01:07;99531.91;;;7.32;100.00
46464;BME280;32161;48.148;-1.554;2024-03-08T07:03:41;99535.19;;;7.34;100.00
46464;BME280;32161;48.148;-1.554;2024-03-08T07:06:10;99527.59;;;7.31;100.00
46464;BME280;32161;48.148;-1.554;2024-03-08T07:08:38;99524.38;;;7.34;100.00
46464;BME280;32161;48.148;-1.554;2024-03-08T07:11:05;99529.31;;;7.37;100.00
46464;BME280;32161;48.148;-1.554;2024-03-08T07:13:35;99525.56;;;7.38;100.00
46464;BME280;32161;48.148;-1.554;2024-03-08T07:16:03;99529.91;;;7.39;100.00
46464;BME280;32161;48.148;-1.554;2024-03-08T07:18:31;99526.03;;;7.35;100.00
46464;BME280;32161;48.148;-1.554;2024-03-08T07:20:58;99525.41;;;7.45;100.00
46464;BME280;32161;48.148;-1.554;2024-03-08T07:23:28;99527.22;;;7.39;100.00
46464;BME280;32161;48.148;-1.554;2024-03-08T07:26:15;99532.63;;;7.39;100.00
46464;BME280;32161;48.148;-1.554;2024-03-08T07:28:46;99524.59;;;7.44;100.00
46464;BME280;32161;48.148;-1.554;2024-03-08T07:31:13;99524.03;;;7.42;100.00
46464;BME280;32161;48.148;-1.554;2024-03-08T07:33:53;99526.22;;;7.45;100.00
46464;BME280;32161;48.148;-1.554;2024-03-08T07:36:20;99520.00;;;7.45;100.00
46464;BME280;32161;48.148;-1.554;2024-03-08T07:38:48;99522.72;;;7.45;100.00
46464;BME280;32161;48.148;-1.554;2024-03-08T07:41:16;99521.16;;;7.49;100.00
46464;BME280;32161;48.148;-1.554;2024-03-08T07:43:45;99514.56;;;7.56;100.00
46464;BME280;32161;48.148;-1.554;2024-03-08T07:46:13;99518.09;;;7.57;100.00
46464;BME280;32161;48.148;-1.554;2024-03-08T07:48:41;99507.59;;;7.61;100.00
46464;BME280;32161;48.148;-1.554;2024-03-08T07:51:09;99514.69;;;7.62;100.00
46464;BME280;32161;48.148;-1.554;2024-03-08T07:53:38;99501.38;;;7.60;100.00
46464;BME280;32161;48.148;-1.554;2024-03-08T07:56:07;99508.53;;;7.66;100.00
46464;BME280;32161;48.148;-1.554;2024-03-08T07:58:37;99502.88;;;7.68;100.00
46464;BME280;32161;48.148;-1.554;2024-03-08T08:01:08;99497.72;;;7.66;100.00
46464;BME280;32161;48.148;-1.554;2024-03-08T08:03:35;99488.88;;;7.71;100.00
46464;BME280;32161;48.148;-1.554;2024-03-08T08:06:04;99485.22;;;7.77;100.00
46464;BME280;32161;48.148;-1.554;2024-03-08T08:08:32;99485.56;;;7.80;100.00
46464;BME280;32161;48.148;-1.554;2024-03-08T08:11:00;99480.69;;;7.82;100.00
46464;BME280;32161;48.148;-1.554;2024-03-08T08:13:28;99480.56;;;7.89;100.00
46464;BME280;32161;48.148;-1.554;2024-03-08T08:15:58;99479.81;;;7.94;100.00
46464;BME280;32161;48.148;-1.554;2024-03-08T08:18:27;99471.44;;;7.95;100.00
46464;BME280;32161;48.148;-1.554;2024-03-08T08:20:56;99475.56;;;7.98;100.00
46464;BME280;32161;48.148;-1.554;2024-03-08T08:23:23;99471.22;;;8.14;100.00
46464;BME280;32161;48.148;-1.554;2024-03-08T08:25:51;99461.72;;;8.11;100.00
46464;BME280;32161;48.148;-1.554;2024-03-08T08:28:19;99460.50;;;8.19;100.00
46464;BME280;32161;48.148;-1.554;2024-03-08T08:30:46;99460.56;;;8.24;100.00
46464;BME280;32161;48.148;-1.554;2024-03-08T08:33:15;99455.50;;;8.27;100.00
46464;BME280;32161;48.148;-1.554;2024-03-08T08:35:44;99467.19;;;8.33;100.00
46464;BME280;32161;48.148;-1.554;2024-03-08T08:38:13;99455.44;;;8.39;100.00
46464;BME280;32161;48.148;-1.554;2024-03-08T08:40:41;99453.88;;;8.43;100.00
46464;BME280;32161;48.148;-1.554;2024-03-08T08:43:08;99454.94;;;8.42;100.00
46464;BME280;32161;48.148;-1.554;2024-03-08T08:45:36;99450.41;;;8.48;100.00
46464;BME280;32161;48.148;-1.554;2024-03-08T08:48:06;99453.44;;;8.51;100.00
46464;BME280;32161;48.148;-1.554;2024-03-08T08:50:34;99450.88;;;8.62;100.00
46464;BME280;32161;48.148;-1.554;2024-03-08T08:53:04;99454.84;;;8.76;100.00
46464;BME280;32161;48.148;-1.554;2024-03-08T08:55:33;99459.13;;;8.72;100.00
46464;BME280;32161;48.148;-1.554;2024-03-08T08:58:02;99457.25;;;8.72;100.00
46464;BME280;32161;48.148;-1.554;2024-03-08T09:00:30;99464.44;;;8.84;100.00
46464;BME280;32161;48.148;-1.554;2024-03-08T09:02:59;99459.63;;;8.86;100.00
46464;BME280;32161;48.148;-1.554;2024-03-08T09:05:28;99456.63;;;8.87;100.00
46464;BME280;32161;48.148;-1.554;2024-03-08T09:07:56;99466.75;;;8.92;100.00
46464;BME280;32161;48.148;-1.554;2024-03-08T09:10:25;99452.00;;;9.04;100.00
46464;BME280;32161;48.148;-1.554;2024-03-08T09:12:53;99451.50;;;9.08;100.00
46464;BME280;32161;48.148;-1.554;2024-03-08T09:15:21;99448.25;;;9.11;100.00
46464;BME280;32161;48.148;-1.554;2024-03-08T09:17:49;99440.13;;;9.11;100.00
46464;BME280;32161;48.148;-1.554;2024-03-08T09:20:17;99432.94;;;9.21;100.00
46464;BME280;32161;48.148;-1.554;2024-03-08T09:22:45;99425.94;;;9.25;100.00
46464;BME280;32161;48.148;-1.554;2024-03-08T09:25:13;99427.34;;;9.28;100.00
46464;BME280;32161;48.148;-1.554;2024-03-08T09:27:42;99421.97;;;9.33;100.00
46464;BME280;32161;48.148;-1.554;2024-03-08T09:30:11;99418.03;;;9.46;100.00
46464;BME280;32161;48.148;-1.554;2024-03-08T09:32:39;99417.59;;;9.54;100.00
46464;BME280;32161;48.148;-1.554;2024-03-08T09:35:08;99419.00;;;9.62;100.00
46464;BME280;32161;48.148;-1.554;2024-03-08T09:37:35;99408.78;;;9.69;100.00
46464;BME280;32161;48.148;-1.554;2024-03-08T09:40:05;99406.59;;;9.71;100.00
46464;BME280;32161;48.148;-1.554;2024-03-08T09:42:35;99396.38;;;9.78;100.00
46464;BME280;32161;48.148;-1.554;2024-03-08T09:45:09;99404.25;;;9.79;100.00
46464;BME280;32161;48.148;-1.554;2024-03-08T09:47:40;99407.84;;;9.85;100.00
46464;BME280;32161;48.148;-1.554;2024-03-08T09:50:09;99411.41;;;9.91;100.00
46464;BME280;32161;48.148;-1.554;2024-03-08T09:52:39;99401.22;;;10.08;100.00
46464;BME280;32161;48.148;-1.554;2024-03-08T09:55:08;99396.63;;;10.09;100.00
46464;BME280;32161;48.148;-1.554;2024-03-08T09:57:37;99397.72;;;10.13;100.00
46464;BME280;32161;48.148;-1.554;2024-03-08T10:00:08;99394.22;;;10.17;100.00
46464;BME280;32161;48.148;-1.554;2024-03-08T10:02:46;99394.66;;;10.36;100.00
46464;BME280;32161;48.148;-1.554;2024-03-08T10:05:14;99396.25;;;10.32;100.00
46464;BME280;32161;48.148;-1.554;2024-03-08T10:07:41;99386.81;;;10.40;100.00
46464;BME280;32161;48.148;-1.554;2024-03-08T10:10:09;99384.97;;;10.45;100.00
46464;BME280;32161;48.148;-1.554;2024-03-08T10:12:38;99378.44;;;10.51;100.00
46464;BME280;32161;48.148;-1.554;2024-03-08T10:15:08;99373.91;;;10.62;100.00
46464;BME280;32161;48.148;-1.554;2024-03-08T10:17:37;99363.41;;;10.86;100.00
46464;BME280;32161;48.148;-1.554;2024-03-08T10:20:14;99359.56;;;10.77;100.00
46464;BME280;32161;48.148;-1.554;2024-03-08T10:22:42;99368.88;;;10.96;100.00
46464;BME280;32161;48.148;-1.554;2024-03-08T10:25:11;99362.06;;;10.94;100.00
46464;BME280;32161;48.148;-1.554;2024-03-08T10:27:39;99359.84;;;10.81;100.00
46464;BME280;32161;48.148;-1.554;2024-03-08T10:30:13;99353.91;;;10.89;100.00
46464;BME280;32161;48.148;-1.554;2024-03-08T10:32:42;99348.75;;;10.92;100.00
46464;BME280;32161;48.148;-1.554;2024-03-08T10:35:10;99344.94;;;10.88;100.00
46464;BME280;32161;48.148;-1.554;2024-03-08T10:37:45;99334.06;;;10.93;100.00
46464;BME280;32161;48.148;-1.554;2024-03-08T10:40:17;99335.44;;;11.01;100.00
46464;BME280;32161;48.148;-1.554;2024-03-08T10:42:53;99324.03;;;11.04;100.00
46464;BME280;32161;48.148;-1.554;2024-03-08T10:45:33;99330.28;;;11.10;100.00
46464;BME280;32161;48.148;-1.554;2024-03-08T10:48:19;99319.44;;;11.25;100.00
46464;BME280;32161;48.148;-1.554;2024-03-08T10:50:54;99318.06;;;11.17;100.00
46464;BME280;32161;48.148;-1.554;2024-03-08T10:53:23;99311.84;;;11.27;100.00
46464;BME280;32161;48.148;-1.554;2024-03-08T10:55:54;99314.84;;;11.41;100.00
46464;BME280;32161;48.148;-1.554;2024-03-08T10:58:25;99314.31;;;11.44;100.00
46464;BME280;32161;48.148;-1.554;2024-03-08T11:00:56;99305.06;;;11.50;100.00
46464;BME280;32161;48.148;-1.554;2024-03-08T11:03:46;99303.16;;;11.86;100.00
46464;BME280;32161;48.148;-1.554;2024-03-08T11:06:17;99308.06;;;11.94;100.00
46464;BME280;32161;48.148;-1.554;2024-03-08T11:08:49;99303.44;;;12.00;100.00
46464;BME280;32161;48.148;-1.554;2024-03-08T11:11:26;99301.53;;;12.01;100.00
46464;BME280;32161;48.148;-1.554;2024-03-08T11:14:01;99308.34;;;11.57;100.00
46464;BME280;32161;48.148;-1.554;2024-03-08T11:16:49;99299.88;;;11.79;100.00
46464;BME280;32161;48.148;-1.554;2024-03-08T11:19:26;99301.25;;;11.97;100.00
46464;BME280;32161;48.148;-1.554;2024-03-08T11:22:02;99293.09;;;11.92;100.00
46464;BME280;32161;48.148;-1.554;2024-03-08T11:24:38;99291.16;;;12.13;100.00
46464;BME280;32161;48.148;-1.554;2024-03-08T11:27:09;99285.19;;;12.11;100.00
46464;BME280;32161;48.148;-1.554;2024-03-08T11:29:38;99295.50;;;12.09;100.00
46464;BME280;32161;48.148;-1.554;2024-03-08T11:32:12;99279.16;;;12.09;100.00
46464;BME280;32161;48.148;-1.554;2024-03-08T11:34:44;99278.63;;;12.02;100.00
46464;BME280;32161;48.148;-1.554;2024-03-08T11:37:15;99273.22;;;11.96;100.00
46464;BME280;32161;48.148;-1.554;2024-03-08T11:39:47;99273.22;;;11.96;100.00
46464;BME280;32161;48.148;-1.554;2024-03-08T11:42:16;99265.56;;;12.09;100.00
46464;BME280;32161;48.148;-1.554;2024-03-08T11:44:44;99273.97;;;12.17;100.00
46464;BME280;32161;48.148;-1.554;2024-03-08T11:47:14;99271.25;;;12.23;100.00
46464;BME280;32161;48.148;-1.554;2024-03-08T11:49:42;99282.41;;;12.26;100.00
46464;BME280;32161;48.148;-1.554;2024-03-08T11:52:12;99292.78;;;12.19;100.00
46464;BME280;32161;48.148;-1.554;2024-03-08T11:54:40;99291.38;;;12.32;100.00
46464;BME280;32161;48.148;-1.554;2024-03-08T11:57:09;99298.13;;;12.50;100.00
46464;BME280;32161;48.148;-1.554;2024-03-08T11:59:37;99286.44;;;12.39;100.00
46464;BME280;32161;48.148;-1.554;2024-03-08T12:02:05;99280.69;;;12.40;100.00
46464;BME280;32161;48.148;-1.554;2024-03-08T12:04:37;99280.13;;;12.54;100.00
46464;BME280;32161;48.148;-1.554;2024-03-08T12:07:05;99287.09;;;12.75;100.00
46464;BME280;32161;48.148;-1.554;2024-03-08T12:09:38;99268.09;;;12.60;100.00
46464;BME280;32161;48.148;-1.554;2024-03-08T12:12:08;99259.47;;;12.32;100.00
46464;BME280;32161;48.148;-1.554;2024-03-08T12:14:38;99256.50;;;12.34;100.00
46464;BME280;32161;48.148;-1.554;2024-03-08T12:17:05;99249.09;;;12.39;100.00
46464;BME280;32161;48.148;-1.554;2024-03-08T12:19:33;99248.22;;;12.49;100.00
46464;BME280;32161;48.148;-1.554;2024-03-08T12:22:09;99235.72;;;12.48;100.00
46464;BME280;32161;48.148;-1.554;2024-03-08T12:24:37;99235.97;;;12.52;100.00
46464;BME280;32161;48.148;-1.554;2024-03-08T12:27:18;99238.44;;;12.53;100.00
46464;BME280;32161;48.148;-1.554;2024-03-08T12:29:46;99232.91;;;12.63;100.00
46464;BME280;32161;48.148;-1.554;2024-03-08T12:32:14;99227.19;;;12.60;100.00
46464;BME280;32161;48.148;-1.554;2024-03-08T12:34:43;99211.59;;;12.70;100.00
46464;BME280;32161;48.148;-1.554;2024-03-08T12:37:20;99202.97;;;12.58;100.00
46464;BME280;32161;48.148;-1.554;2024-03-08T12:39:49;99202.66;;;12.60;100.00
46464;BME280;32161;48.148;-1.554;2024-03-08T12:42:17;99201.00;;;12.64;100.00
46464;BME280;32161;48.148;-1.554;2024-03-08T12:44:45;99193.63;;;12.69;100.00
46464;BME280;32161;48.148;-1.554;2024-03-08T12:47:13;99188.13;;;12.75;100.00
46464;BME280;32161;48.148;-1.554;2024-03-08T12:49:41;99170.59;;;12.86;100.00
46464;BME280;32161;48.148;-1.554;2024-03-08T12:52:11;99164.63;;;12.84;100.00
46464;BME280;32161;48.148;-1.554;2024-03-08T12:54:40;99156.59;;;12.98;100.00
46464;BME280;32161;48.148;-1.554;2024-03-08T12:57:08;99149.78;;;13.00;100.00
46464;BME280;32161;48.148;-1.554;2024-03-08T12:59:35;99151.66;;;13.05;100.00